Delta Virtual Airport Information Service

Whidbey Island NAS

ICAO: KNUW Country: United States
Latitude: 48.3518 Longitude: -122.655
Latest Arrival : (-) Latest Departure : (-)


WX CaptureLIVE
Data provided by noaa.gov | Fetched at 10:30:23

METAR : KNUW 231614Z 13006KT 5SM -RA BR BKN010 OVC015 06/03 A2999 RMK AO2 CIG 008V013 P0001 T00560033

TAF : KNUW 2315/2415 13010G15KT 9999 VCSH SCT015 BKN020 BKN030 OVC080 640309 QNH2990INS TEMPO 2315/2318 13007KT 9999 -SHRA BKN012 OVC030 FM231800 17009KT 9999 VCSH BKN020 BKN070 BKN120 640000 QNH2999INS FM240500 14011KT 9999 BKN030 BKN060 QNH3006INS TEMPO 2405/2411 14014G20KT BKN025 BKN060 BECMG 2411/2412 14020G30KT 9999 BKN040 BKN060 BKN200 520004 QNH2999INS T11/2322Z T07/2413Z FS30004


Runway Data for KNUW
Data provided by openaviationdata.com

Runway ID Mag Var Hdg Length Elevation Surface ILS Freq ILS Id ILS Slope
7 21 65° 7985 ft 47 ft Concrete -- -- --
13 21 133° 7994 ft 47 ft Concrete 110.1 INUW 3
25 21 245° 7985 ft 47 ft Concrete -- -- --
31 21 313° 7994 ft 47 ft Concrete -- -- --

Whidbey Island NAS, United States
Use only for reference purposes



Not for navigational purposes.